sensor_id;sensor_type;location;lat;lon;timestamp;temperature;humidity
55008;DHT22;40902;45.116;21.296;2023-09-08T00:17:18;589.50;2432.00
55008;DHT22;40902;45.116;21.296;2023-09-08T00:19:44;589.50;2432.00
55008;DHT22;40902;45.116;21.296;2023-09-08T00:22:09;589.50;2432.00
55008;DHT22;40902;45.116;21.296;2023-09-08T00:24:35;589.50;2432.00
55008;DHT22;40902;45.116;21.296;2023-09-08T00:27:01;589.50;2432.00
55008;DHT22;40902;45.116;21.296;2023-09-08T00:29:27;589.50;2432.00
55008;DHT22;40902;45.116;21.296;2023-09-08T00:31:52;589.50;2432.00
55008;DHT22;40902;45.116;21.296;2023-09-08T00:34:18;589.50;2432.00
55008;DHT22;40902;45.116;21.296;2023-09-08T00:36:44;589.40;2432.00
55008;DHT22;40902;45.116;21.296;2023-09-08T00:39:09;589.40;2432.00
55008;DHT22;40902;45.116;21.296;2023-09-08T00:41:35;589.50;2432.00
55008;DHT22;40902;45.116;21.296;2023-09-08T00:44:01;589.40;2432.00
55008;DHT22;40902;45.116;21.296;2023-09-08T00:46:27;589.40;2432.00
55008;DHT22;40902;45.116;21.296;2023-09-08T00:48:53;589.50;2432.00
55008;DHT22;40902;45.116;21.296;2023-09-08T00:51:20;589.50;2432.00
55008;DHT22;40902;45.116;21.296;2023-09-08T00:53:46;589.40;2432.00
55008;DHT22;40902;45.116;21.296;2023-09-08T00:56:12;589.40;2432.00
55008;DHT22;40902;45.116;21.296;2023-09-08T00:58:38;589.40;2432.00
55008;DHT22;40902;45.116;21.296;2023-09-08T01:01:04;589.40;2432.00
55008;DHT22;40902;45.116;21.296;2023-09-08T01:03:31;589.40;2432.00
55008;DHT22;40902;45.116;21.296;2023-09-08T01:05:56;589.40;2432.00
55008;DHT22;40902;45.116;21.296;2023-09-08T01:08:22;589.40;2432.00
55008;DHT22;40902;45.116;21.296;2023-09-08T01:10:48;589.40;2432.00
55008;DHT22;40902;45.116;21.296;2023-09-08T01:13:14;589.40;2432.00
55008;DHT22;40902;45.116;21.296;2023-09-08T01:15:40;589.40;2432.00
55008;DHT22;40902;45.116;21.296;2023-09-08T01:18:05;589.40;2432.00
55008;DHT22;40902;45.116;21.296;2023-09-08T01:21:06;589.40;2432.00
55008;DHT22;40902;45.116;21.296;2023-09-08T01:26:41;589.40;2432.00
55008;DHT22;40902;45.116;21.296;2023-09-08T01:29:09;589.40;2432.00
55008;DHT22;40902;45.116;21.296;2023-09-08T01:31:36;589.40;2432.00
55008;DHT22;40902;45.116;21.296;2023-09-08T01:34:04;589.40;2432.00
55008;DHT22;40902;45.116;21.296;2023-09-08T01:36:33;589.40;2432.00
55008;DHT22;40902;45.116;21.296;2023-09-08T01:39:00;589.40;2432.00
55008;DHT22;40902;45.116;21.296;2023-09-08T01:41:26;589.40;2432.00
55008;DHT22;40902;45.116;21.296;2023-09-08T01:43:52;589.40;2432.00
55008;DHT22;40902;45.116;21.296;2023-09-08T01:46:17;589.40;2432.00
55008;DHT22;40902;45.116;21.296;2023-09-08T01:48:43;589.40;2432.00
55008;DHT22;40902;45.116;21.296;2023-09-08T01:51:09;589.40;2432.00
55008;DHT22;40902;45.116;21.296;2023-09-08T01:53:35;589.40;2432.00
55008;DHT22;40902;45.116;21.296;2023-09-08T01:56:01;589.40;2432.00
55008;DHT22;40902;45.116;21.296;2023-09-08T01:58:26;589.40;2432.00
55008;DHT22;40902;45.116;21.296;2023-09-08T02:00:52;589.40;2432.00
55008;DHT22;40902;45.116;21.296;2023-09-08T02:03:18;589.40;2432.00
55008;DHT22;40902;45.116;21.296;2023-09-08T02:05:45;589.30;2432.00
55008;DHT22;40902;45.116;21.296;2023-09-08T02:08:10;589.40;2432.00
55008;DHT22;40902;45.116;21.296;2023-09-08T02:10:39;589.40;2432.00
55008;DHT22;40902;45.116;21.296;2023-09-08T02:13:05;589.40;2432.00
55008;DHT22;40902;45.116;21.296;2023-09-08T02:15:31;589.40;2432.00
55008;DHT22;40902;45.116;21.296;2023-09-08T02:17:59;589.40;2432.00
55008;DHT22;40902;45.116;21.296;2023-09-08T02:20:25;589.30;2432.00
55008;DHT22;40902;45.116;21.296;2023-09-08T02:22:54;589.40;2432.00
55008;DHT22;40902;45.116;21.296;2023-09-08T02:25:20;589.30;2432.00
55008;DHT22;40902;45.116;21.296;2023-09-08T02:27:46;589.30;2432.00
55008;DHT22;40902;45.116;21.296;2023-09-08T02:30:12;589.30;2432.00
55008;DHT22;40902;45.116;21.296;2023-09-08T02:32:37;589.40;2432.00
55008;DHT22;40902;45.116;21.296;2023-09-08T02:35:03;589.40;2432.00
55008;DHT22;40902;45.116;21.296;2023-09-08T02:37:29;589.30;2432.00
55008;DHT22;40902;45.116;21.296;2023-09-08T02:39:54;589.40;2432.00
55008;DHT22;40902;45.116;21.296;2023-09-08T02:42:20;589.40;2432.00
55008;DHT22;40902;45.116;21.296;2023-09-08T02:44:46;589.40;2432.00
55008;DHT22;40902;45.116;21.296;2023-09-08T02:47:11;589.40;2432.00
55008;DHT22;40902;45.116;21.296;2023-09-08T02:49:37;589.30;2432.00
55008;DHT22;40902;45.116;21.296;2023-09-08T02:52:03;589.30;2432.00
55008;DHT22;40902;45.116;21.296;2023-09-08T02:54:29;589.30;2432.00
55008;DHT22;40902;45.116;21.296;2023-09-08T02:56:55;589.30;2432.00
55008;DHT22;40902;45.116;21.296;2023-09-08T02:59:20;589.40;2432.00
55008;DHT22;40902;45.116;21.296;2023-09-08T03:01:46;589.40;2432.00
55008;DHT22;40902;45.116;21.296;2023-09-08T03:04:12;589.30;2432.00
55008;DHT22;40902;45.116;21.296;2023-09-08T03:06:37;589.30;2432.00
55008;DHT22;40902;45.116;21.296;2023-09-08T03:09:03;589.40;2432.00
55008;DHT22;40902;45.116;21.296;2023-09-08T03:11:29;589.30;2432.00
55008;DHT22;40902;45.116;21.296;2023-09-08T03:13:55;589.30;2432.00
55008;DHT22;40902;45.116;21.296;2023-09-08T03:16:20;589.30;2432.00
55008;DHT22;40902;45.116;21.296;2023-09-08T03:18:46;589.30;2432.00
55008;DHT22;40902;45.116;21.296;2023-09-08T03:21:14;589.30;2432.00
55008;DHT22;40902;45.116;21.296;2023-09-08T03:23:41;589.30;2432.00
55008;DHT22;40902;45.116;21.296;2023-09-08T03:26:07;589.30;2432.00
55008;DHT22;40902;45.116;21.296;2023-09-08T03:28:34;589.30;2432.00
55008;DHT22;40902;45.116;21.296;2023-09-08T03:31:01;589.30;2432.00
55008;DHT22;40902;45.116;21.296;2023-09-08T03:33:27;589.30;2432.00
55008;DHT22;40902;45.116;21.296;2023-09-08T03:35:52;589.30;2432.00
55008;DHT22;40902;45.116;21.296;2023-09-08T03:38:18;589.30;2432.00
55008;DHT22;40902;45.116;21.296;2023-09-08T03:40:44;589.30;2432.00
55008;DHT22;40902;45.116;21.296;2023-09-08T03:43:10;589.30;2432.00
55008;DHT22;40902;45.116;21.296;2023-09-08T03:45:36;589.30;2432.00
55008;DHT22;40902;45.116;21.296;2023-09-08T03:48:01;589.30;2432.00
55008;DHT22;40902;45.116;21.296;2023-09-08T03:50:27;589.30;2432.00
55008;DHT22;40902;45.116;21.296;2023-09-08T03:52:53;589.30;2432.00
55008;DHT22;40902;45.116;21.296;2023-09-08T03:55:19;589.30;2432.00
55008;DHT22;40902;45.116;21.296;2023-09-08T03:57:45;589.30;2432.00
55008;DHT22;40902;45.116;21.296;2023-09-08T04:00:11;589.30;2432.00
55008;DHT22;40902;45.116;21.296;2023-09-08T04:02:37;589.30;2432.00
55008;DHT22;40902;45.116;21.296;2023-09-08T04:05:03;589.30;2432.00
55008;DHT22;40902;45.116;21.296;2023-09-08T04:07:29;589.30;2432.00
55008;DHT22;40902;45.116;21.296;2023-09-08T04:09:54;589.30;2432.00
55008;DHT22;40902;45.116;21.296;2023-09-08T04:12:20;589.30;2432.00
55008;DHT22;40902;45.116;21.296;2023-09-08T04:14:46;589.30;2432.00
55008;DHT22;40902;45.116;21.296;2023-09-08T04:17:11;589.30;2432.00
55008;DHT22;40902;45.116;21.296;2023-09-08T04:19:40;589.30;2432.00
55008;DHT22;40902;45.116;21.296;2023-09-08T04:22:05;589.30;2432.00
55008;DHT22;40902;45.116;21.296;2023-09-08T04:24:35;589.30;2432.00
55008;DHT22;40902;45.116;21.296;2023-09-08T04:27:01;589.30;2432.00
55008;DHT22;40902;45.116;21.296;2023-09-08T04:29:27;589.30;2432.00
55008;DHT22;40902;45.116;21.296;2023-09-08T04:31:52;589.30;2432.00
55008;DHT22;40902;45.116;21.296;2023-09-08T04:34:18;589.30;2432.00
55008;DHT22;40902;45.116;21.296;2023-09-08T04:36:43;589.30;2432.00
55008;DHT22;40902;45.116;21.296;2023-09-08T04:39:09;589.30;2432.00
55008;DHT22;40902;45.116;21.296;2023-09-08T04:41:37;589.30;2432.00
55008;DHT22;40902;45.116;21.296;2023-09-08T04:44:03;589.30;2432.00
55008;DHT22;40902;45.116;21.296;2023-09-08T04:46:30;589.20;2432.00
55008;DHT22;40902;45.116;21.296;2023-09-08T04:48:56;589.20;2432.00
55008;DHT22;40902;45.116;21.296;2023-09-08T04:51:21;589.20;2432.00
55008;DHT22;40902;45.116;21.296;2023-09-08T04:53:47;589.20;2432.00
55008;DHT22;40902;45.116;21.296;2023-09-08T04:56:13;589.30;2432.00
55008;DHT22;40902;45.116;21.296;2023-09-08T04:58:39;589.20;2432.00
55008;DHT22;40902;45.116;21.296;2023-09-08T05:01:05;589.20;2432.00
55008;DHT22;40902;45.116;21.296;2023-09-08T05:03:31;589.20;2432.00
55008;DHT22;40902;45.116;21.296;2023-09-08T05:05:57;589.30;2432.00
55008;DHT22;40902;45.116;21.296;2023-09-08T05:08:22;589.30;2432.00
55008;DHT22;40902;45.116;21.296;2023-09-08T05:10:48;589.20;2432.00
55008;DHT22;40902;45.116;21.296;2023-09-08T05:13:16;589.30;2432.00
55008;DHT22;40902;45.116;21.296;2023-09-08T05:15:42;589.20;2432.00
55008;DHT22;40902;45.116;21.296;2023-09-08T05:18:09;589.20;2432.00
55008;DHT22;40902;45.116;21.296;2023-09-08T05:20:35;589.30;2432.00
55008;DHT22;40902;45.116;21.296;2023-09-08T05:23:00;589.30;2432.00
55008;DHT22;40902;45.116;21.296;2023-09-08T05:25:26;589.30;2432.00
55008;DHT22;40902;45.116;21.296;2023-09-08T05:27:52;589.30;2432.00
55008;DHT22;40902;45.116;21.296;2023-09-08T05:30:18;589.30;2432.00
55008;DHT22;40902;45.116;21.296;2023-09-08T05:32:43;589.30;2432.00
55008;DHT22;40902;45.116;21.296;2023-09-08T05:35:09;589.30;2432.00
55008;DHT22;40902;45.116;21.296;2023-09-08T05:37:35;589.30;2432.00
55008;DHT22;40902;45.116;21.296;2023-09-08T05:40:00;589.30;2432.00
55008;DHT22;40902;45.116;21.296;2023-09-08T05:42:26;589.30;2432.00
55008;DHT22;40902;45.116;21.296;2023-09-08T05:44:52;589.30;2432.00
55008;DHT22;40902;45.116;21.296;2023-09-08T05:47:20;589.30;2432.00
55008;DHT22;40902;45.116;21.296;2023-09-08T05:49:45;589.30;2432.00
55008;DHT22;40902;45.116;21.296;2023-09-08T05:52:11;589.30;2432.00
55008;DHT22;40902;45.116;21.296;2023-09-08T05:54:37;589.30;2432.00
55008;DHT22;40902;45.116;21.296;2023-09-08T05:57:02;589.30;2432.00
55008;DHT22;40902;45.116;21.296;2023-09-08T05:59:28;589.30;2432.00
55008;DHT22;40902;45.116;21.296;2023-09-08T06:01:54;589.30;2432.00
55008;DHT22;40902;45.116;21.296;2023-09-08T06:04:19;589.30;2432.00
55008;DHT22;40902;45.116;21.296;2023-09-08T06:06:45;589.30;2432.00
55008;DHT22;40902;45.116;21.296;2023-09-08T06:09:11;589.30;2432.00
55008;DHT22;40902;45.116;21.296;2023-09-08T06:11:37;589.30;2432.00
55008;DHT22;40902;45.116;21.296;2023-09-08T06:14:03;589.30;2432.00
55008;DHT22;40902;45.116;21.296;2023-09-08T06:16:29;589.30;2432.00
55008;DHT22;40902;45.116;21.296;2023-09-08T06:18:54;589.30;2432.00
55008;DHT22;40902;45.116;21.296;2023-09-08T06:21:20;589.40;2432.00
55008;DHT22;40902;45.116;21.296;2023-09-08T06:23:46;589.50;2432.00
55008;DHT22;40902;45.116;21.296;2023-09-08T06:26:12;589.40;2432.00
55008;DHT22;40902;45.116;21.296;2023-09-08T06:28:38;589.30;2432.00
55008;DHT22;40902;45.116;21.296;2023-09-08T06:31:04;589.30;2432.00
55008;DHT22;40902;45.116;21.296;2023-09-08T06:33:30;589.40;2432.00
55008;DHT22;40902;45.116;21.296;2023-09-08T06:35:56;589.40;2432.00
55008;DHT22;40902;45.116;21.296;2023-09-08T06:38:21;589.30;2432.00
55008;DHT22;40902;45.116;21.296;2023-09-08T06:40:47;589.40;2432.00
55008;DHT22;40902;45.116;21.296;2023-09-08T06:43:13;589.40;2432.00
55008;DHT22;40902;45.116;21.296;2023-09-08T06:48:05;589.60;2432.00
55008;DHT22;40902;45.116;21.296;2023-09-08T06:50:31;589.50;2432.00
55008;DHT22;40902;45.116;21.296;2023-09-08T06:52:57;589.40;2432.00
55008;DHT22;40902;45.116;21.296;2023-09-08T06:55:22;589.40;2432.00
55008;DHT22;40902;45.116;21.296;2023-09-08T06:57:48;589.40;2432.00
55008;DHT22;40902;45.116;21.296;2023-09-08T07:00:14;589.40;2432.00
55008;DHT22;40902;45.116;21.296;2023-09-08T07:02:42;589.50;2432.00
55008;DHT22;40902;45.116;21.296;2023-09-08T07:05:08;589.50;2432.00
55008;DHT22;40902;45.116;21.296;2023-09-08T07:07:35;589.50;2432.00
55008;DHT22;40902;45.116;21.296;2023-09-08T07:10:04;589.50;2432.00
55008;DHT22;40902;45.116;21.296;2023-09-08T07:12:30;589.40;2432.00
55008;DHT22;40902;45.116;21.296;2023-09-08T07:14:56;589.50;2432.00
55008;DHT22;40902;45.116;21.296;2023-09-08T07:17:22;589.50;2432.00
55008;DHT22;40902;45.116;21.296;2023-09-08T07:19:51;589.50;2432.00
55008;DHT22;40902;45.116;21.296;2023-09-08T07:22:16;589.50;2432.00
55008;DHT22;40902;45.116;21.296;2023-09-08T07:24:42;589.50;2432.00
55008;DHT22;40902;45.116;21.296;2023-09-08T07:27:08;589.50;2432.00
55008;DHT22;40902;45.116;21.296;2023-09-08T07:29:33;589.50;2432.00
55008;DHT22;40902;45.116;21.296;2023-09-08T07:31:59;589.50;2432.00
55008;DHT22;40902;45.116;21.296;2023-09-08T07:34:25;589.50;2432.00
55008;DHT22;40902;45.116;21.296;2023-09-08T07:36:51;589.50;2432.00
55008;DHT22;40902;45.116;21.296;2023-09-08T07:39:16;589.50;2432.00
55008;DHT22;40902;45.116;21.296;2023-09-08T07:41:42;589.50;2432.00
55008;DHT22;40902;45.116;21.296;2023-09-08T07:44:08;589.50;2432.00
55008;DHT22;40902;45.116;21.296;2023-09-08T07:46:34;589.50;2432.00
55008;DHT22;40902;45.116;21.296;2023-09-08T07:49:00;589.50;2432.00
55008;DHT22;40902;45.116;21.296;2023-09-08T07:51:26;589.50;2432.00
55008;DHT22;40902;45.116;21.296;2023-09-08T07:53:53;589.50;2432.00
55008;DHT22;40902;45.116;21.296;2023-09-08T07:56:19;589.60;2432.00
55008;DHT22;40902;45.116;21.296;2023-09-08T07:58:44;589.60;2432.00
55008;DHT22;40902;45.116;21.296;2023-09-08T08:01:12;589.60;2432.00
55008;DHT22;40902;45.116;21.296;2023-09-08T08:03:37;589.60;2432.00
55008;DHT22;40902;45.116;21.296;2023-09-08T08:06:03;589.60;2432.00
55008;DHT22;40902;45.116;21.296;2023-09-08T08:08:29;589.60;2432.00
55008;DHT22;40902;45.116;21.296;2023-09-08T08:10:55;589.60;2432.00
55008;DHT22;40902;45.116;21.296;2023-09-08T08:13:21;589.60;2432.00
55008;DHT22;40902;45.116;21.296;2023-09-08T08:15:47;589.60;2432.00
55008;DHT22;40902;45.116;21.296;2023-09-08T08:18:13;589.60;2432.00
55008;DHT22;40902;45.116;21.296;2023-09-08T08:20:39;589.60;2432.00
55008;DHT22;40902;45.116;21.296;2023-09-08T08:23:05;589.60;2432.00
55008;DHT22;40902;45.116;21.296;2023-09-08T08:25:32;589.60;2432.00
55008;DHT22;40902;45.116;21.296;2023-09-08T08:27:58;589.60;2432.00
55008;DHT22;40902;45.116;21.296;2023-09-08T08:30:26;589.60;2432.00
55008;DHT22;40902;45.116;21.296;2023-09-08T08:32:52;589.60;2432.00
55008;DHT22;40902;45.116;21.296;2023-09-08T08:35:19;589.60;2432.00
55008;DHT22;40902;45.116;21.296;2023-09-08T08:37:45;589.60;2432.00
55008;DHT22;40902;45.116;21.296;2023-09-08T08:40:11;589.70;2432.00
55008;DHT22;40902;45.116;21.296;2023-09-08T08:42:40;589.70;2432.00
55008;DHT22;40902;45.116;21.296;2023-09-08T08:45:06;589.70;2432.00
55008;DHT22;40902;45.116;21.296;2023-09-08T08:47:32;589.70;2432.00
55008;DHT22;40902;45.116;21.296;2023-09-08T08:49:59;589.70;2432.00
55008;DHT22;40902;45.116;21.296;2023-09-08T08:52:29;589.70;2432.00
55008;DHT22;40902;45.116;21.296;2023-09-08T08:54:55;589.70;2432.00
55008;DHT22;40902;45.116;21.296;2023-09-08T08:57:22;589.70;2432.00
55008;DHT22;40902;45.116;21.296;2023-09-08T08:59:49;589.70;2432.00
55008;DHT22;40902;45.116;21.296;2023-09-08T09:02:18;589.70;2432.00
55008;DHT22;40902;45.116;21.296;2023-09-08T09:04:44;589.70;2432.00
55008;DHT22;40902;45.116;21.296;2023-09-08T09:07:11;589.70;2432.00
55008;DHT22;40902;45.116;21.296;2023-09-08T09:09:37;589.70;2432.00
55008;DHT22;40902;45.116;21.296;2023-09-08T09:12:05;589.70;2432.00
55008;DHT22;40902;45.116;21.296;2023-09-08T09:14:34;589.70;2432.00
55008;DHT22;40902;45.116;21.296;2023-09-08T09:17:00;589.70;2432.00
55008;DHT22;40902;45.116;21.296;2023-09-08T09:19:27;614.40;2432.00
55008;DHT22;40902;45.116;21.296;2023-09-08T09:21:55;614.40;2432.00
55008;DHT22;40902;45.116;21.296;2023-09-08T09:24:39;614.40;2432.00
55008;DHT22;40902;45.116;21.296;2023-09-08T09:27:12;614.40;2432.00
55008;DHT22;40902;45.116;21.296;2023-09-08T09:29:46;614.40;2432.00
55008;DHT22;40902;45.116;21.296;2023-09-08T09:32:12;614.40;2432.00
55008;DHT22;40902;45.116;21.296;2023-09-08T09:34:51;614.40;2432.00
55008;DHT22;40902;45.116;21.296;2023-09-08T09:37:19;614.40;2432.00
55008;DHT22;40902;45.116;21.296;2023-09-08T09:39:53;614.40;2432.00
55008;DHT22;40902;45.116;21.296;2023-09-08T09:42:20;614.40;2432.00
55008;DHT22;40902;45.116;21.296;2023-09-08T09:44:51;614.40;2432.00
55008;DHT22;40902;45.116;21.296;2023-09-08T09:47:17;614.40;2432.00
55008;DHT22;40902;45.116;21.296;2023-09-08T09:49:47;614.40;2432.00
55008;DHT22;40902;45.116;21.296;2023-09-08T09:52:20;614.40;2432.00
55008;DHT22;40902;45.116;21.296;2023-09-08T09:54:46;614.40;2432.00
55008;DHT22;40902;45.116;21.296;2023-09-08T09:57:14;614.40;2432.00
55008;DHT22;40902;45.116;21.296;2023-09-08T09:59:43;614.40;2432.00
55008;DHT22;40902;45.116;21.296;2023-09-08T10:02:12;614.40;2432.00
55008;DHT22;40902;45.116;21.296;2023-09-08T10:04:40;614.40;2432.00
55008;DHT22;40902;45.116;21.296;2023-09-08T10:07:06;614.40;2432.00
55008;DHT22;40902;45.116;21.296;2023-09-08T10:09:32;614.50;2432.00
55008;DHT22;40902;45.116;21.296;2023-09-08T10:12:02;614.50;2432.00
55008;DHT22;40902;45.116;21.296;2023-09-08T10:14:30;614.50;2432.00
55008;DHT22;40902;45.116;21.296;2023-09-08T10:16:59;614.50;2432.00
55008;DHT22;40902;45.116;21.296;2023-09-08T10:19:26;614.50;2432.00
55008;DHT22;40902;45.116;21.296;2023-09-08T10:21:55;614.50;2432.00
55008;DHT22;40902;45.116;21.296;2023-09-08T10:24:32;614.50;2432.00
55008;DHT22;40902;45.116;21.296;2023-09-08T10:27:09;614.50;2432.00
55008;DHT22;40902;45.116;21.296;2023-09-08T10:29:36;614.50;2432.00
55008;DHT22;40902;45.116;21.296;2023-09-08T10:32:02;614.50;2432.00
55008;DHT22;40902;45.116;21.296;2023-09-08T10:34:30;614.50;2432.00
55008;DHT22;40902;45.116;21.296;2023-09-08T10:36:56;614.50;2432.00
55008;DHT22;40902;45.116;21.296;2023-09-08T10:39:34;614.50;2432.00
55008;DHT22;40902;45.116;21.296;2023-09-08T10:47:13;614.50;2432.00
55008;DHT22;40902;45.116;21.296;2023-09-08T10:49:40;614.50;2432.00
55008;DHT22;40902;45.116;21.296;2023-09-08T10:52:09;614.80;2432.00
55008;DHT22;40902;45.116;21.296;2023-09-08T10:54:45;614.70;2432.00
55008;DHT22;40902;45.116;21.296;2023-09-08T10:57:14;614.60;2432.00
55008;DHT22;40902;45.116;21.296;2023-09-08T10:59:53;614.60;2432.00
55008;DHT22;40902;45.116;21.296;2023-09-08T11:02:50;614.60;2432.00
55008;DHT22;40902;45.116;21.296;2023-09-08T11:05:16;614.60;2432.00
55008;DHT22;40902;45.116;21.296;2023-09-08T11:07:44;614.60;2432.00
55008;DHT22;40902;45.116;21.296;2023-09-08T11:10:12;614.50;2432.00
55008;DHT22;40902;45.116;21.296;2023-09-08T11:12:38;614.60;2432.00
55008;DHT22;40902;45.116;21.296;2023-09-08T11:15:05;614.60;2432.00
55008;DHT22;40902;45.116;21.296;2023-09-08T11:17:33;614.60;2432.00
55008;DHT22;40902;45.116;21.296;2023-09-08T11:20:00;614.60;2432.00
55008;DHT22;40902;45.116;21.296;2023-09-08T11:22:26;614.60;2432.00
55008;DHT22;40902;45.116;21.296;2023-09-08T11:24:53;614.70;2432.00
55008;DHT22;40902;45.116;21.296;2023-09-08T11:27:22;614.60;2432.00
55008;DHT22;40902;45.116;21.296;2023-09-08T11:29:49;614.60;2432.00
55008;DHT22;40902;45.116;21.296;2023-09-08T11:32:15;614.60;2432.00
55008;DHT22;40902;45.116;21.296;2023-09-08T11:34:41;614.60;2432.00
55008;DHT22;40902;45.116;21.296;2023-09-08T11:37:13;614.60;2432.00
55008;DHT22;40902;45.116;21.296;2023-09-08T11:42:11;614.90;2432.00
55008;DHT22;40902;45.116;21.296;2023-09-08T11:44:38;614.80;2432.00
55008;DHT22;40902;45.116;21.296;2023-09-08T11:47:05;614.60;2432.00
55008;DHT22;40902;45.116;21.296;2023-09-08T11:49:38;614.60;2432.00
55008;DHT22;40902;45.116;21.296;2023-09-08T14:43:29;614.90;2432.00
55008;DHT22;40902;45.116;21.296;2023-09-08T14:45:55;614.80;2432.00
55008;DHT22;40902;45.116;21.296;2023-09-08T14:48:24;614.80;2432.00
55008;DHT22;40902;45.116;21.296;2023-09-08T14:50:50;614.80;2432.00
55008;DHT22;40902;45.116;21.296;2023-09-08T14:53:16;614.80;2432.00
55008;DHT22;40902;45.116;21.296;2023-09-08T14:55:42;614.80;2432.00
55008;DHT22;40902;45.116;21.296;2023-09-08T14:58:10;614.80;2432.00
55008;DHT22;40902;45.116;21.296;2023-09-08T15:00:38;614.80;2432.00
55008;DHT22;40902;45.116;21.296;2023-09-08T15:03:04;614.90;2432.00
55008;DHT22;40902;45.116;21.296;2023-09-08T15:05:31;614.90;2432.00
55008;DHT22;40902;45.116;21.296;2023-09-08T15:07:58;614.90;2432.00
55008;DHT22;40902;45.116;21.296;2023-09-08T15:10:24;614.90;2432.00
55008;DHT22;40902;45.116;21.296;2023-09-08T15:12:49;614.90;2432.00
55008;DHT22;40902;45.116;21.296;2023-09-08T15:15:15;614.90;2432.00
55008;DHT22;40902;45.116;21.296;2023-09-08T15:17:43;614.90;2432.00
55008;DHT22;40902;45.116;21.296;2023-09-08T15:20:09;614.90;2432.00
55008;DHT22;40902;45.116;21.296;2023-09-08T15:22:35;614.90;2432.00
55008;DHT22;40902;45.116;21.296;2023-09-08T15:25:01;614.90;2432.00
55008;DHT22;40902;45.116;21.296;2023-09-08T15:27:27;614.90;2432.00
55008;DHT22;40902;45.116;21.296;2023-09-08T15:29:53;614.90;2432.00
55008;DHT22;40902;45.116;21.296;2023-09-08T15:32:18;614.90;2432.00
55008;DHT22;40902;45.116;21.296;2023-09-08T15:34:44;614.90;2432.00
55008;DHT22;40902;45.116;21.296;2023-09-08T15:37:12;614.90;2432.00
55008;DHT22;40902;45.116;21.296;2023-09-08T15:39:38;614.90;2432.00
55008;DHT22;40902;45.116;21.296;2023-09-08T15:42:04;614.90;2432.00
55008;DHT22;40902;45.116;21.296;2023-09-08T15:44:30;615.00;2432.00
55008;DHT22;40902;45.116;21.296;2023-09-08T15:46:55;615.00;2432.00
55008;DHT22;40902;45.116;21.296;2023-09-08T15:49:21;615.00;2432.00
55008;DHT22;40902;45.116;21.296;2023-09-08T15:51:47;615.00;2432.00
55008;DHT22;40902;45.116;21.296;2023-09-08T15:54:12;614.90;2432.00
55008;DHT22;40902;45.116;21.296;2023-09-08T15:56:38;615.00;2432.00
55008;DHT22;40902;45.116;21.296;2023-09-08T15:59:04;615.00;2432.00
55008;DHT22;40902;45.116;21.296;2023-09-08T16:01:29;615.00;2432.00
55008;DHT22;40902;45.116;21.296;2023-09-08T16:03:55;615.00;2432.00
55008;DHT22;40902;45.116;21.296;2023-09-08T16:06:21;615.00;2432.00
55008;DHT22;40902;45.116;21.296;2023-09-08T16:08:46;615.00;2432.00
55008;DHT22;40902;45.116;21.296;2023-09-08T16:11:12;615.00;2432.00
55008;DHT22;40902;45.116;21.296;2023-09-08T16:13:38;615.00;2432.00
55008;DHT22;40902;45.116;21.296;2023-09-08T16:16:04;615.00;2432.00
55008;DHT22;40902;45.116;21.296;2023-09-08T16:18:32;615.00;2432.00
55008;DHT22;40902;45.116;21.296;2023-09-08T16:20:58;615.00;2432.00
55008;DHT22;40902;45.116;21.296;2023-09-08T16:23:24;615.00;2432.00
55008;DHT22;40902;45.116;21.296;2023-09-08T16:25:50;615.00;2432.00
55008;DHT22;40902;45.116;21.296;2023-09-08T16:28:16;615.00;2432.00
55008;DHT22;40902;45.116;21.296;2023-09-08T16:30:42;615.00;2432.00
55008;DHT22;40902;45.116;21.296;2023-09-08T16:33:08;615.00;2432.00
55008;DHT22;40902;45.116;21.296;2023-09-08T16:35:34;615.00;2432.00
55008;DHT22;40902;45.116;21.296;2023-09-08T16:38:00;614.90;2432.00
55008;DHT22;40902;45.116;21.296;2023-09-08T16:40:25;615.00;2432.00
55008;DHT22;40902;45.116;21.296;2023-09-08T16:42:51;614.90;2432.00
55008;DHT22;40902;45.116;21.296;2023-09-08T16:45:17;614.90;2432.00
55008;DHT22;40902;45.116;21.296;2023-09-08T16:47:43;615.00;2432.00
55008;DHT22;40902;45.116;21.296;2023-09-08T16:50:09;615.00;2432.00
55008;DHT22;40902;45.116;21.296;2023-09-08T16:52:34;614.90;2432.00
55008;DHT22;40902;45.116;21.296;2023-09-08T16:55:00;615.00;2432.00
55008;DHT22;40902;45.116;21.296;2023-09-08T16:57:26;614.90;2432.00
55008;DHT22;40902;45.116;21.296;2023-09-08T16:59:52;614.90;2432.00
55008;DHT22;40902;45.116;21.296;2023-09-08T17:02:17;614.90;2432.00
55008;DHT22;40902;45.116;21.296;2023-09-08T17:04:43;615.00;2432.00
55008;DHT22;40902;45.116;21.296;2023-09-08T17:07:09;614.90;2432.00
55008;DHT22;40902;45.116;21.296;2023-09-08T17:09:35;614.90;2432.00
55008;DHT22;40902;45.116;21.296;2023-09-08T17:12:01;614.90;2432.00
55008;DHT22;40902;45.116;21.296;2023-09-08T17:14:29;615.00;2432.00
55008;DHT22;40902;45.116;21.296;2023-09-08T17:16:55;614.90;2432.00
55008;DHT22;40902;45.116;21.296;2023-09-08T17:19:20;614.90;2432.00
55008;DHT22;40902;45.116;21.296;2023-09-08T17:21:46;614.90;2432.00
55008;DHT22;40902;45.116;21.296;2023-09-08T17:24:12;615.00;2432.00
55008;DHT22;40902;45.116;21.296;2023-09-08T17:26:38;614.90;2432.00
55008;DHT22;40902;45.116;21.296;2023-09-08T17:29:04;614.90;2432.00
55008;DHT22;40902;45.116;21.296;2023-09-08T17:31:29;614.90;2432.00
55008;DHT22;40902;45.116;21.296;2023-09-08T17:33:56;614.90;2432.00
55008;DHT22;40902;45.116;21.296;2023-09-08T17:36:21;614.90;2432.00
55008;DHT22;40902;45.116;21.296;2023-09-08T17:38:47;614.90;2432.00
55008;DHT22;40902;45.116;21.296;2023-09-08T17:41:13;614.90;2432.00
55008;DHT22;40902;45.116;21.296;2023-09-08T17:43:39;614.90;2432.00
55008;DHT22;40902;45.116;21.296;2023-09-08T17:46:05;614.90;2432.00
55008;DHT22;40902;45.116;21.296;2023-09-08T17:48:30;614.90;2432.00
55008;DHT22;40902;45.116;21.296;2023-09-08T17:50:56;614.90;2432.00
55008;DHT22;40902;45.116;21.296;2023-09-08T17:53:22;614.90;2432.00